createdAt,value
2019-03-08T00:00:59.359Z,8.70
2019-03-08T00:03:25.679Z,8.80
2019-03-08T00:05:52.038Z,8.70
2019-03-08T00:08:18.425Z,8.70
2019-03-08T00:10:44.965Z,8.70
2019-03-08T00:13:11.384Z,8.70
2019-03-08T00:15:38.009Z,8.70
2019-03-08T00:18:05.415Z,8.70
2019-03-08T00:20:31.788Z,8.70
2019-03-08T00:22:58.193Z,8.70
2019-03-08T00:25:24.533Z,8.70
2019-03-08T00:27:50.943Z,8.70
2019-03-08T00:30:17.271Z,8.80
2019-03-08T00:32:44.022Z,8.80
2019-03-08T00:35:10.711Z,8.80
2019-03-08T00:37:37.092Z,8.80
2019-03-08T00:40:07.483Z,8.80
2019-03-08T00:42:33.904Z,8.70
2019-03-08T00:45:00.403Z,8.60
2019-03-08T00:47:26.882Z,8.60
2019-03-08T00:49:53.404Z,8.60
2019-03-08T00:52:19.847Z,8.60
2019-03-08T00:54:46.216Z,8.50
2019-03-08T00:57:12.597Z,8.50
2019-03-08T00:59:39.053Z,8.40
2019-03-08T01:02:05.442Z,8.40
2019-03-08T01:04:31.813Z,8.30
2019-03-08T01:06:58.558Z,8.30
2019-03-08T01:09:24.919Z,8.30
2019-03-08T01:11:51.391Z,8.20
2019-03-08T01:14:17.754Z,8.20
2019-03-08T01:16:44.122Z,8.30
2019-03-08T01:19:10.473Z,8.30
2019-03-08T01:21:36.861Z,8.30
2019-03-08T01:24:03.428Z,8.20
2019-03-08T01:26:29.807Z,8.20
2019-03-08T01:28:57.250Z,8.20
2019-03-08T01:31:23.625Z,8.20
2019-03-08T01:33:49.964Z,8.10
2019-03-08T01:36:16.322Z,8.10
2019-03-08T01:38:42.698Z,8.10
2019-03-08T01:41:09.133Z,8.10
2019-03-08T01:43:35.730Z,8.10
2019-03-08T01:46:02.079Z,8.10
2019-03-08T01:48:28.500Z,8.10
2019-03-08T01:50:54.918Z,8.10
2019-03-08T01:53:21.378Z,8.20
2019-03-08T01:55:47.724Z,8.20
2019-03-08T01:58:14.132Z,8.20
2019-03-08T02:00:41.674Z,8.20
2019-03-08T02:03:09.113Z,8.20
2019-03-08T02:05:35.510Z,8.20
2019-03-08T02:08:01.828Z,8.20
2019-03-08T02:10:28.317Z,8.30
2019-03-08T02:12:54.682Z,8.20
2019-03-08T02:15:21.194Z,8.20
2019-03-08T02:17:48.035Z,8.20
2019-03-08T02:20:16.972Z,8.20
2019-03-08T02:22:43.374Z,8.20
2019-03-08T02:25:10.911Z,8.10
2019-03-08T02:27:37.297Z,8.20
2019-03-08T02:30:06.933Z,8.20
2019-03-08T02:32:33.357Z,8.20
2019-03-08T02:34:59.998Z,8.20
2019-03-08T02:37:26.402Z,8.20
2019-03-08T02:39:52.744Z,8.20
2019-03-08T02:42:19.145Z,8.10
2019-03-08T02:44:45.549Z,8.10
2019-03-08T02:47:11.893Z,8.10
2019-03-08T02:49:38.363Z,8.10
2019-03-08T02:52:04.996Z,8.10
2019-03-08T02:54:31.424Z,8.10
2019-03-08T02:56:57.791Z,8.10
2019-03-08T02:59:24.151Z,8.00
2019-03-08T03:01:50.522Z,8.00
2019-03-08T03:04:16.981Z,8.00
2019-03-08T03:06:43.418Z,8.00
2019-03-08T03:09:09.990Z,8.00
2019-03-08T03:11:38.318Z,8.10
2019-03-08T03:14:04.691Z,8.10
2019-03-08T03:16:31.098Z,8.10
2019-03-08T03:18:57.498Z,8.00
2019-03-08T03:21:23.865Z,8.00
2019-03-08T03:23:50.233Z,8.10
2019-03-08T03:26:16.710Z,8.00
2019-03-08T03:28:43.122Z,8.00
2019-03-08T03:31:09.537Z,8.00
2019-03-08T03:33:35.888Z,8.00
2019-03-08T03:36:02.237Z,8.00
2019-03-08T03:38:28.646Z,7.90
2019-03-08T03:40:55.087Z,7.90
2019-03-08T03:43:21.504Z,7.90
2019-03-08T03:45:48.161Z,7.90
2019-03-08T03:48:14.472Z,7.90
2019-03-08T03:50:40.918Z,7.90
2019-03-08T03:53:07.270Z,7.90
2019-03-08T03:55:33.686Z,7.90
2019-03-08T03:58:00.040Z,7.90
2019-03-08T04:00:26.460Z,7.90
2019-03-08T04:02:53.118Z,7.90
2019-03-08T04:05:19.520Z,7.90
2019-03-08T04:07:45.989Z,7.80
2019-03-08T04:10:13.950Z,7.80
2019-03-08T04:12:40.283Z,7.80
2019-03-08T04:15:10.032Z,7.80
2019-03-08T04:17:36.344Z,7.80
2019-03-08T04:20:05.509Z,7.80
2019-03-08T04:22:31.857Z,7.80
2019-03-08T04:24:58.251Z,7.80
2019-03-08T04:27:24.585Z,7.80
2019-03-08T04:29:50.940Z,7.80
2019-03-08T04:32:17.347Z,7.80
2019-03-08T04:34:43.746Z,7.70
2019-03-08T04:37:10.438Z,7.70
2019-03-08T04:39:36.840Z,7.70
2019-03-08T04:42:03.140Z,7.60
2019-03-08T04:44:29.491Z,7.60
2019-03-08T04:46:55.866Z,7.60
2019-03-08T04:49:22.209Z,7.50
2019-03-08T04:51:48.526Z,7.50
2019-03-08T04:54:14.920Z,7.50
2019-03-08T04:56:41.386Z,7.40
2019-03-08T04:59:07.821Z,7.40
2019-03-08T05:01:34.293Z,7.30
2019-03-08T05:04:00.661Z,7.40
2019-03-08T05:06:27.023Z,7.40
2019-03-08T05:08:53.422Z,7.40
2019-03-08T05:11:19.816Z,7.40
2019-03-08T05:13:46.384Z,7.40
2019-03-08T05:16:12.757Z,7.30
2019-03-08T05:18:39.112Z,7.30
2019-03-08T05:21:05.481Z,7.20
2019-03-08T05:23:31.846Z,7.20
2019-03-08T05:25:58.307Z,7.20
2019-03-08T05:28:24.683Z,7.10
2019-03-08T05:30:51.071Z,7.10
2019-03-08T05:33:17.417Z,7.10
2019-03-08T05:35:43.773Z,7.10
2019-03-08T05:38:10.169Z,7.00
2019-03-08T05:40:36.598Z,7.10
2019-03-08T05:43:04.077Z,7.10
2019-03-08T05:45:30.696Z,7.00
2019-03-08T05:47:57.148Z,7.10
2019-03-08T05:50:23.720Z,7.10
2019-03-08T05:52:50.129Z,7.10
2019-03-08T05:55:16.507Z,7.00
2019-03-08T05:57:42.930Z,7.10
2019-03-08T06:00:16.303Z,7.10
2019-03-08T06:02:42.676Z,7.10
2019-03-08T06:05:09.028Z,7.20
2019-03-08T06:07:35.699Z,7.20
2019-03-08T06:10:04.777Z,7.20
2019-03-08T06:12:31.208Z,7.30
2019-03-08T06:14:57.634Z,7.30
2019-03-08T06:17:24.083Z,7.40
2019-03-08T06:19:50.467Z,7.40
2019-03-08T06:22:17.869Z,7.50
2019-03-08T06:24:44.436Z,7.60
2019-03-08T06:27:10.884Z,7.60
2019-03-08T06:29:37.278Z,7.70
2019-03-08T06:32:03.669Z,7.70
2019-03-08T06:34:30.074Z,7.80
2019-03-08T06:36:56.488Z,7.80
2019-03-08T06:39:22.922Z,7.90
2019-03-08T06:41:49.336Z,8.00
2019-03-08T06:44:15.989Z,8.10
2019-03-08T06:46:42.386Z,8.80
2019-03-08T06:49:08.796Z,9.50
2019-03-08T06:51:35.249Z,10.00
2019-03-08T06:54:02.946Z,10.60
2019-03-08T06:56:29.330Z,11.00
2019-03-08T06:59:00.225Z,11.20
2019-03-08T07:01:27.004Z,11.30
2019-03-08T07:03:53.474Z,11.40
2019-03-08T07:06:19.836Z,11.50
2019-03-08T07:08:46.267Z,11.50
2019-03-08T07:11:12.629Z,10.80
2019-03-08T07:13:39.051Z,10.30
2019-03-08T07:16:12.713Z,10.20
2019-03-08T07:18:33.640Z,10.30
2019-03-08T07:21:02.274Z,10.00
2019-03-08T07:23:30.618Z,9.90
2019-03-08T07:26:15.576Z,10.00
2019-03-08T07:28:43.900Z,9.90
2019-03-08T07:31:28.829Z,9.90
2019-03-08T07:34:00.238Z,9.80
2019-03-08T07:36:34.627Z,9.80
2019-03-08T07:39:19.641Z,10.20
2019-03-08T07:41:47.889Z,11.00
2019-03-08T07:44:19.114Z,12.00
2019-03-08T07:46:50.420Z,12.50
2019-03-08T07:49:27.669Z,12.10
2019-03-08T07:52:02.190Z,11.60
2019-03-08T07:54:36.377Z,11.80
2019-03-08T07:57:04.781Z,12.40
2019-03-08T07:59:35.621Z,12.80
2019-03-08T08:02:20.517Z,12.60
2019-03-08T08:05:05.398Z,12.90
2019-03-08T08:07:39.723Z,12.70
2019-03-08T08:10:13.333Z,13.00
2019-03-08T08:12:42.979Z,12.80
2019-03-08T08:15:14.822Z,13.00
2019-03-08T08:17:48.970Z,13.30
2019-03-08T08:20:23.537Z,12.70
2019-03-08T08:22:54.476Z,12.30
2019-03-08T08:25:36.978Z,12.70
2019-03-08T08:28:05.115Z,13.10
2019-03-08T08:30:50.013Z,13.40
2019-03-08T08:33:33.245Z,14.10
2019-03-08T08:36:04.551Z,14.40
2019-03-08T08:38:41.894Z,13.90
2019-03-08T08:41:14.799Z,13.80
2019-03-08T08:43:43.176Z,14.10
2019-03-08T08:46:11.506Z,13.00
2019-03-08T08:48:45.349Z,12.10
2019-03-08T08:51:25.996Z,11.90
2019-03-08T08:54:00.169Z,11.80
2019-03-08T08:56:47.964Z,11.60
2019-03-08T08:59:19.288Z,11.40
2019-03-08T09:01:56.297Z,11.10
2019-03-08T09:04:32.135Z,11.10
2019-03-08T09:07:09.577Z,11.20
2019-03-08T09:09:40.867Z,11.30
2019-03-08T09:12:09.223Z,11.10
2019-03-08T09:14:40.534Z,11.00
2019-03-08T09:17:20.885Z,10.90
2019-03-08T09:19:49.513Z,10.90
2019-03-08T09:22:17.780Z,10.80
2019-03-08T09:24:49.029Z,10.80
2019-03-08T09:27:19.909Z,10.90
2019-03-08T09:29:48.190Z,10.80
2019-03-08T09:32:16.646Z,10.80
2019-03-08T09:34:50.595Z,10.80
2019-03-08T09:37:18.916Z,11.00
2019-03-08T09:39:56.523Z,11.10
2019-03-08T09:42:40.019Z,11.10
2019-03-08T09:45:12.995Z,11.20
2019-03-08T09:47:53.354Z,11.30
2019-03-08T09:50:21.779Z,11.30
2019-03-08T09:52:55.855Z,11.30
2019-03-08T09:55:33.459Z,11.30
2019-03-08T09:58:10.983Z,11.50
2019-03-08T10:00:55.786Z,11.90
2019-03-08T10:03:30.187Z,12.30
2019-03-08T10:06:01.006Z,12.10
2019-03-08T10:08:29.260Z,12.10
2019-03-08T10:11:00.074Z,12.10
2019-03-08T10:13:37.553Z,11.90
2019-03-08T10:16:05.871Z,11.80
2019-03-08T10:18:49.754Z,11.80
2019-03-08T10:21:33.242Z,11.70
2019-03-08T10:24:02.920Z,11.50
2019-03-08T10:26:39.948Z,11.40
2019-03-08T10:29:17.425Z,11.30
2019-03-08T10:32:01.139Z,11.10
2019-03-08T10:34:38.215Z,10.90
2019-03-08T10:37:12.839Z,10.90
2019-03-08T10:39:56.289Z,10.90
2019-03-08T10:42:27.284Z,11.00
2019-03-08T10:45:12.443Z,11.00
2019-03-08T10:47:57.219Z,11.00
2019-03-08T10:50:42.190Z,11.00
2019-03-08T10:53:11.718Z,10.80
2019-03-08T10:55:56.495Z,10.80
2019-03-08T10:58:24.881Z,10.60
2019-03-08T11:00:53.242Z,10.40
2019-03-08T11:03:27.083Z,10.30
2019-03-08T11:05:58.179Z,10.10
2019-03-08T11:08:29.991Z,10.00
2019-03-08T11:11:10.563Z,10.00
2019-03-08T11:13:50.725Z,9.90
2019-03-08T11:16:21.814Z,10.00
2019-03-08T11:18:56.214Z,10.00
2019-03-08T11:21:31.127Z,10.00
2019-03-08T11:24:05.550Z,9.90
2019-03-08T11:26:36.253Z,9.80
2019-03-08T11:29:07.346Z,9.80
2019-03-08T11:31:36.694Z,9.80
2019-03-08T11:34:05.414Z,9.80
2019-03-08T11:36:36.760Z,9.80
2019-03-08T11:39:14.980Z,9.90
2019-03-08T11:41:52.478Z,10.00
2019-03-08T11:44:23.997Z,10.00
2019-03-08T11:46:55.141Z,10.10
2019-03-08T11:49:29.373Z,10.20
2019-03-08T11:51:57.684Z,10.30
2019-03-08T11:54:40.738Z,10.40
2019-03-08T11:57:14.406Z,10.50
2019-03-08T11:59:42.811Z,10.70
2019-03-08T12:02:11.132Z,10.80
2019-03-08T12:04:46.226Z,11.00
2019-03-08T12:07:26.608Z,11.00
2019-03-08T12:10:12.967Z,11.00
2019-03-08T12:12:57.903Z,11.00
2019-03-08T12:15:40.973Z,11.00
2019-03-08T12:18:09.223Z,11.10
2019-03-08T12:20:46.114Z,11.10
2019-03-08T12:23:17.392Z,11.20
2019-03-08T12:26:02.368Z,11.20
2019-03-08T12:28:30.597Z,11.00
2019-03-08T12:31:10.691Z,10.80
2019-03-08T12:33:49.035Z,10.50
2019-03-08T12:36:23.286Z,10.40
2019-03-08T12:38:51.586Z,10.50
2019-03-08T12:41:32.265Z,10.60
2019-03-08T12:44:17.548Z,10.70
2019-03-08T12:46:45.844Z,10.80
2019-03-08T12:49:32.020Z,11.00
2019-03-08T12:52:00.323Z,11.10
2019-03-08T12:54:34.569Z,11.10
2019-03-08T12:57:05.402Z,11.10
2019-03-08T12:59:39.680Z,11.20
2019-03-08T13:02:07.988Z,11.20
2019-03-08T13:04:48.543Z,11.10
2019-03-08T13:07:22.629Z,11.10
2019-03-08T13:09:49.386Z,11.10
2019-03-08T13:12:16.017Z,11.20
2019-03-08T13:14:42.392Z,11.20
2019-03-08T13:17:08.837Z,11.20
2019-03-08T13:19:35.527Z,11.20
2019-03-08T13:22:01.966Z,11.20
2019-03-08T13:24:29.492Z,11.30
2019-03-08T13:26:55.927Z,11.20
2019-03-08T13:29:22.453Z,11.20
2019-03-08T13:31:48.843Z,11.10
2019-03-08T13:34:15.240Z,11.10
2019-03-08T13:36:41.966Z,10.70
2019-03-08T13:39:08.634Z,10.10
2019-03-08T13:41:35.641Z,10.00
2019-03-08T13:44:03.593Z,10.00
2019-03-08T13:46:30.039Z,10.10
2019-03-08T13:48:56.485Z,10.20
2019-03-08T13:51:22.883Z,10.30
2019-03-08T13:53:49.303Z,10.30
2019-03-08T13:56:15.689Z,10.20
2019-03-08T14:01:41.751Z,10.10
2019-03-08T14:04:08.741Z,10.10
2019-03-08T14:06:36.055Z,10.10
2019-03-08T14:09:04.849Z,10.10
2019-03-08T14:11:31.830Z,10.10
2019-03-08T14:13:58.259Z,10.10
2019-03-08T14:16:24.749Z,10.10
2019-03-08T14:18:51.251Z,10.10
2019-03-08T14:21:18.032Z,10.10
2019-03-08T14:23:44.456Z,10.10
2019-03-08T14:26:12.078Z,10.00
2019-03-08T14:28:39.407Z,10.10
2019-03-08T14:31:08.905Z,10.00
2019-03-08T14:33:38.109Z,10.10
2019-03-08T14:36:06.041Z,10.00
2019-03-08T14:38:36.186Z,10.00
2019-03-08T14:41:07.642Z,9.90
2019-03-08T14:43:36.018Z,10.00
2019-03-08T14:46:04.577Z,10.00
2019-03-08T14:48:31.000Z,10.00
2019-03-08T14:50:57.651Z,10.00
2019-03-08T14:53:24.139Z,9.80
2019-03-08T14:55:50.577Z,9.50
2019-03-08T14:58:17.116Z,9.40
2019-03-08T15:00:43.528Z,9.50
2019-03-08T15:03:09.970Z,9.50
2019-03-08T15:05:36.468Z,9.60
2019-03-08T15:08:03.120Z,9.50
2019-03-08T15:10:38.842Z,9.60
2019-03-08T15:12:57.982Z,9.50
2019-03-08T15:15:24.625Z,9.40
2019-03-08T15:17:53.654Z,9.40
2019-03-08T15:20:20.372Z,9.40
2019-03-08T15:22:47.083Z,9.40
2019-03-08T15:25:14.881Z,9.30
2019-03-08T15:27:41.512Z,9.30
2019-03-08T15:30:10.807Z,9.30
2019-03-08T15:32:37.170Z,9.20
2019-03-08T15:35:05.849Z,9.20
2019-03-08T15:37:32.601Z,9.20
2019-03-08T15:39:59.096Z,9.20
2019-03-08T15:42:25.595Z,9.20
2019-03-08T15:44:52.040Z,9.20
2019-03-08T15:47:23.529Z,9.30
2019-03-08T15:49:46.845Z,9.30
2019-03-08T15:52:13.242Z,9.40
2019-03-08T15:54:39.722Z,9.40
2019-03-08T15:57:06.157Z,9.50
2019-03-08T15:59:33.904Z,9.50
2019-03-08T16:02:02.033Z,9.40
2019-03-08T16:04:28.963Z,9.30
2019-03-08T16:06:55.389Z,9.30
2019-03-08T16:09:21.839Z,9.20
2019-03-08T16:11:48.286Z,9.10
2019-03-08T16:14:14.745Z,9.10
2019-03-08T16:16:41.230Z,9.00
2019-03-08T16:19:07.671Z,9.00
2019-03-08T16:21:34.099Z,8.90
2019-03-08T16:24:00.805Z,8.90
2019-03-08T16:26:27.667Z,8.80
2019-03-08T16:28:54.076Z,8.80
2019-03-08T16:31:31.124Z,8.80
2019-03-08T16:33:59.548Z,8.80
2019-03-08T16:36:28.021Z,8.70
2019-03-08T16:39:13.517Z,8.60
2019-03-08T16:41:58.844Z,8.60
2019-03-08T16:44:30.324Z,8.60
2019-03-08T16:47:12.347Z,8.60
2019-03-08T16:49:57.626Z,8.60
2019-03-08T16:52:44.348Z,8.50
2019-03-08T16:55:21.433Z,8.50
2019-03-08T16:57:52.893Z,8.50
2019-03-08T17:00:30.479Z,8.40
2019-03-08T17:02:59.001Z,8.40
2019-03-08T17:05:27.396Z,8.40
2019-03-08T17:07:55.724Z,8.30
2019-03-08T17:10:41.007Z,8.20
2019-03-08T17:13:19.529Z,8.20
2019-03-08T17:15:48.020Z,8.20
2019-03-08T17:18:25.413Z,8.10
2019-03-08T17:20:53.764Z,8.10
2019-03-08T17:23:27.925Z,8.10
2019-03-08T17:26:11.190Z,8.00
2019-03-08T17:28:39.794Z,8.00
2019-03-08T17:31:11.036Z,7.80
2019-03-08T17:33:39.360Z,7.80
2019-03-08T17:36:20.645Z,7.80
2019-03-08T17:38:49.827Z,7.70
2019-03-08T17:41:27.504Z,7.70
2019-03-08T17:44:11.327Z,7.80
2019-03-08T17:46:46.475Z,7.70
2019-03-08T17:49:21.335Z,7.70
2019-03-08T17:51:55.805Z,7.60
2019-03-08T17:54:30.424Z,7.50
2019-03-08T17:57:07.623Z,7.50
2019-03-08T17:59:47.945Z,7.50
2019-03-08T18:02:31.224Z,7.50
2019-03-08T18:05:02.353Z,7.40
2019-03-08T18:07:33.557Z,7.50
2019-03-08T18:10:08.023Z,7.50
2019-03-08T18:12:51.598Z,7.50
2019-03-08T18:15:35.794Z,7.40
2019-03-08T18:18:15.995Z,7.40
2019-03-08T18:20:56.811Z,7.40
2019-03-08T18:23:28.266Z,7.40
2019-03-08T18:26:09.000Z,7.40
2019-03-08T18:28:37.691Z,7.40
2019-03-08T18:31:06.063Z,7.40
2019-03-08T18:33:37.220Z,7.40
2019-03-08T18:36:22.353Z,7.40
2019-03-08T18:38:50.650Z,7.40
2019-03-08T18:41:28.061Z,7.40
2019-03-08T18:44:05.805Z,7.30
2019-03-08T18:46:34.160Z,7.30
2019-03-08T18:49:05.587Z,7.30
2019-03-08T18:51:39.780Z,7.20
2019-03-08T18:54:23.554Z,7.20
2019-03-08T18:56:52.337Z,7.10
2019-03-08T18:59:39.464Z,7.00
2019-03-08T19:02:07.822Z,7.00
2019-03-08T19:04:48.472Z,6.90
2019-03-08T19:07:22.723Z,6.90
2019-03-08T19:10:03.418Z,6.80
2019-03-08T19:12:50.202Z,6.80
2019-03-08T19:15:18.676Z,6.80
2019-03-08T19:17:47.818Z,6.80
2019-03-08T19:20:28.332Z,6.70
2019-03-08T19:23:03.463Z,6.70
2019-03-08T19:25:38.495Z,6.70
2019-03-08T19:28:13.576Z,6.70
2019-03-08T19:31:00.512Z,6.60
2019-03-08T19:33:35.365Z,6.70
2019-03-08T19:36:07.531Z,6.60
2019-03-08T19:38:36.520Z,6.60
2019-03-08T19:41:11.131Z,6.50
2019-03-08T19:43:41.094Z,6.50
2019-03-08T19:46:25.187Z,6.50
2019-03-08T19:48:56.360Z,6.60
2019-03-08T19:51:31.047Z,6.50
2019-03-08T19:54:16.233Z,6.50
2019-03-08T19:56:50.721Z,6.50
2019-03-08T19:59:35.474Z,6.50
2019-03-08T20:02:03.797Z,6.50
2019-03-08T20:04:32.259Z,6.40
2019-03-08T20:07:06.807Z,6.40
2019-03-08T20:09:50.419Z,6.30
2019-03-08T20:12:37.154Z,6.30
2019-03-08T20:15:26.186Z,6.30
2019-03-08T20:17:54.696Z,6.30
2019-03-08T20:20:29.216Z,6.30
2019-03-08T20:23:14.491Z,6.20
2019-03-08T20:25:59.820Z,6.20
2019-03-08T20:28:46.871Z,6.10
2019-03-08T20:31:25.143Z,6.10
2019-03-08T20:33:53.718Z,6.00
2019-03-08T20:36:22.279Z,6.00
2019-03-08T20:39:00.290Z,6.00
2019-03-08T20:41:29.412Z,6.00
2019-03-08T20:43:58.043Z,6.00
2019-03-08T20:46:26.935Z,5.90
2019-03-08T20:48:53.790Z,5.80
2019-03-08T20:51:21.132Z,5.80
2019-03-08T20:53:47.758Z,5.80
2019-03-08T20:56:14.222Z,5.80
2019-03-08T20:58:41.378Z,5.80
2019-03-08T21:01:07.948Z,5.80
2019-03-08T21:03:34.557Z,5.80
2019-03-08T21:06:01.157Z,5.70
2019-03-08T21:08:27.615Z,5.70
2019-03-08T21:10:58.389Z,5.70
2019-03-08T21:13:25.769Z,5.60
2019-03-08T21:15:52.260Z,5.60
2019-03-08T21:18:18.956Z,5.60
2019-03-08T21:20:45.455Z,5.60
2019-03-08T21:23:11.933Z,5.60
2019-03-08T21:25:38.359Z,5.50
2019-03-08T21:28:05.028Z,5.50
2019-03-08T21:30:31.625Z,5.40
2019-03-08T21:32:58.154Z,5.40
2019-03-08T21:35:24.997Z,5.40
2019-03-08T21:37:51.535Z,5.30
2019-03-08T21:40:18.054Z,5.20
2019-03-08T21:42:44.445Z,5.30
2019-03-08T21:45:14.932Z,5.20
2019-03-08T21:47:41.417Z,5.20
2019-03-08T21:50:16.866Z,5.10
2019-03-08T21:52:43.445Z,5.10
2019-03-08T21:55:10.157Z,5.00
2019-03-08T21:57:36.794Z,5.00
2019-03-08T22:00:07.117Z,4.90
2019-03-08T22:02:34.428Z,4.90
2019-03-08T22:05:00.960Z,4.80
2019-03-08T22:07:27.432Z,4.70
2019-03-08T22:10:01.748Z,4.70
2019-03-08T22:12:30.107Z,4.60
2019-03-08T22:14:56.779Z,4.60
2019-03-08T22:17:23.489Z,4.50
2019-03-08T22:19:50.139Z,4.50
2019-03-08T22:22:16.703Z,4.40
2019-03-08T22:24:43.193Z,4.40
2019-03-08T22:27:09.652Z,4.40
2019-03-08T22:29:36.111Z,4.40
2019-03-08T22:32:03.569Z,4.40
2019-03-08T22:34:29.999Z,4.40
2019-03-08T22:36:56.430Z,4.30
2019-03-08T22:39:22.925Z,4.30
2019-03-08T22:41:49.481Z,4.30
2019-03-08T22:44:15.840Z,4.30
2019-03-08T22:46:45.700Z,4.30
2019-03-08T22:49:10.537Z,4.20
2019-03-08T22:51:37.006Z,4.20
2019-03-08T22:54:03.435Z,4.20
2019-03-08T22:56:29.964Z,4.00
2019-03-08T22:58:56.408Z,4.00
2019-03-08T23:01:25.075Z,4.00
2019-03-08T23:03:52.730Z,3.90
2019-03-08T23:06:19.184Z,3.90
2019-03-08T23:08:45.714Z,3.90
2019-03-08T23:11:12.467Z,3.80
2019-03-08T23:13:39.166Z,3.80
2019-03-08T23:16:05.699Z,3.80
2019-03-08T23:18:32.320Z,3.80
2019-03-08T23:20:58.949Z,3.80
2019-03-08T23:23:25.399Z,3.80
2019-03-08T23:25:52.116Z,3.80
2019-03-08T23:28:26.747Z,3.70
2019-03-08T23:31:04.234Z,3.70
2019-03-08T23:33:30.755Z,3.70
2019-03-08T23:35:57.303Z,3.80
2019-03-08T23:38:23.921Z,3.70
2019-03-08T23:40:50.567Z,3.70
2019-03-08T23:43:34.465Z,3.70
2019-03-08T23:46:00.797Z,3.70
2019-03-08T23:48:27.221Z,3.70
2019-03-08T23:50:53.685Z,3.70
2019-03-08T23:53:20.230Z,3.60
2019-03-08T23:55:46.771Z,3.60
2019-03-08T23:58:13.699Z,3.70
